sensor_id;sensor_type;location;lat;lon;timestamp;P1;durP1;ratioP1;P2;durP2;ratioP2
76433;SDS011;65265;53.200;6.080;2022-12-07T00:03:53;0.38;;;0.38;;
76433;SDS011;65265;53.200;6.080;2022-12-07T00:08:47;0.32;;;0.32;;
76433;SDS011;65265;53.200;6.080;2022-12-07T00:13:39;0.30;;;0.30;;
76433;SDS011;65265;53.200;6.080;2022-12-07T00:18:32;0.22;;;0.22;;
76433;SDS011;65265;53.200;6.080;2022-12-07T00:23:25;0.40;;;0.40;;
76433;SDS011;65265;53.200;6.080;2022-12-07T00:28:16;0.30;;;0.30;;
76433;SDS011;65265;53.200;6.080;2022-12-07T00:33:08;0.30;;;0.30;;
76433;SDS011;65265;53.200;6.080;2022-12-07T00:38:00;0.35;;;0.35;;
76433;SDS011;65265;53.200;6.080;2022-12-07T00:42:53;0.40;;;0.40;;
76433;SDS011;65265;53.200;6.080;2022-12-07T00:47:44;0.60;;;0.60;;
76433;SDS011;65265;53.200;6.080;2022-12-07T00:52:36;0.50;;;0.50;;
76433;SDS011;65265;53.200;6.080;2022-12-07T00:57:29;0.57;;;0.57;;
76433;SDS011;65265;53.200;6.080;2022-12-07T01:02:23;0.30;;;0.30;;
76433;SDS011;65265;53.200;6.080;2022-12-07T01:07:15;0.40;;;0.40;;
76433;SDS011;65265;53.200;6.080;2022-12-07T01:12:07;0.50;;;0.50;;
76433;SDS011;65265;53.200;6.080;2022-12-07T01:16:58;0.40;;;0.40;;
76433;SDS011;65265;53.200;6.080;2022-12-07T01:21:52;0.40;;;0.40;;
76433;SDS011;65265;53.200;6.080;2022-12-07T01:26:43;0.20;;;0.20;;
76433;SDS011;65265;53.200;6.080;2022-12-07T01:31:35;0.30;;;0.30;;
76433;SDS011;65265;53.200;6.080;2022-12-07T01:36:28;0.30;;;0.30;;
76433;SDS011;65265;53.200;6.080;2022-12-07T01:41:23;0.40;;;0.40;;
76433;SDS011;65265;53.200;6.080;2022-12-07T01:46:16;0.38;;;0.38;;
76433;SDS011;65265;53.200;6.080;2022-12-07T01:51:09;0.32;;;0.32;;
76433;SDS011;65265;53.200;6.080;2022-12-07T01:56:03;0.30;;;0.30;;
76433;SDS011;65265;53.200;6.080;2022-12-07T02:01:00;0.30;;;0.30;;
76433;SDS011;65265;53.200;6.080;2022-12-07T02:05:51;0.38;;;0.38;;
76433;SDS011;65265;53.200;6.080;2022-12-07T02:10:44;0.22;;;0.22;;
76433;SDS011;65265;53.200;6.080;2022-12-07T02:15:39;0.38;;;0.38;;
76433;SDS011;65265;53.200;6.080;2022-12-07T02:20:39;0.30;;;0.30;;
76433;SDS011;65265;53.200;6.080;2022-12-07T02:25:41;0.60;;;0.60;;
76433;SDS011;65265;53.200;6.080;2022-12-07T02:30:48;0.30;;;0.30;;
76433;SDS011;65265;53.200;6.080;2022-12-07T02:35:42;0.32;;;0.32;;
76433;SDS011;65265;53.200;6.080;2022-12-07T02:40:38;0.20;;;0.20;;
76433;SDS011;65265;53.200;6.080;2022-12-07T02:45:34;0.40;;;0.40;;
76433;SDS011;65265;53.200;6.080;2022-12-07T02:50:29;0.30;;;0.30;;
76433;SDS011;65265;53.200;6.080;2022-12-07T02:55:23;0.40;;;0.40;;
76433;SDS011;65265;53.200;6.080;2022-12-07T03:00:20;0.40;;;0.40;;
76433;SDS011;65265;53.200;6.080;2022-12-07T03:05:15;0.30;;;0.30;;
76433;SDS011;65265;53.200;6.080;2022-12-07T03:10:19;0.32;;;0.32;;
76433;SDS011;65265;53.200;6.080;2022-12-07T03:15:20;0.38;;;0.38;;
76433;SDS011;65265;53.200;6.080;2022-12-07T03:20:17;0.40;;;0.40;;
76433;SDS011;65265;53.200;6.080;2022-12-07T03:25:13;0.40;;;0.40;;
76433;SDS011;65265;53.200;6.080;2022-12-07T03:30:10;0.40;;;0.40;;
76433;SDS011;65265;53.200;6.080;2022-12-07T03:35:07;0.40;;;0.40;;
76433;SDS011;65265;53.200;6.080;2022-12-07T03:40:07;0.95;;;0.95;;
76433;SDS011;65265;53.200;6.080;2022-12-07T03:45:04;0.47;;;0.47;;
76433;SDS011;65265;53.200;6.080;2022-12-07T03:50:00;0.43;;;0.43;;
76433;SDS011;65265;53.200;6.080;2022-12-07T03:54:57;0.40;;;0.40;;
76433;SDS011;65265;53.200;6.080;2022-12-07T03:59:54;0.43;;;0.43;;
76433;SDS011;65265;53.200;6.080;2022-12-07T04:04:46;0.40;;;0.40;;
76433;SDS011;65265;53.200;6.080;2022-12-07T04:09:40;0.38;;;0.38;;
76433;SDS011;65265;53.200;6.080;2022-12-07T04:14:31;0.47;;;0.47;;
76433;SDS011;65265;53.200;6.080;2022-12-07T04:19:24;0.30;;;0.30;;
76433;SDS011;65265;53.200;6.080;2022-12-07T04:24:17;0.30;;;0.30;;
76433;SDS011;65265;53.200;6.080;2022-12-07T04:29:10;0.25;;;0.25;;
76433;SDS011;65265;53.200;6.080;2022-12-07T04:34:03;0.20;;;0.20;;
76433;SDS011;65265;53.200;6.080;2022-12-07T04:38:55;0.38;;;0.38;;
76433;SDS011;65265;53.200;6.080;2022-12-07T04:43:47;0.40;;;0.40;;
76433;SDS011;65265;53.200;6.080;2022-12-07T04:48:40;0.30;;;0.30;;
76433;SDS011;65265;53.200;6.080;2022-12-07T04:53:32;0.32;;;0.30;;
76433;SDS011;65265;53.200;6.080;2022-12-07T04:58:23;0.50;;;0.50;;
76433;SDS011;65265;53.200;6.080;2022-12-07T05:03:15;0.40;;;0.40;;
76433;SDS011;65265;53.200;6.080;2022-12-07T05:08:08;0.43;;;0.43;;
76433;SDS011;65265;53.200;6.080;2022-12-07T05:13:00;0.30;;;0.30;;
76433;SDS011;65265;53.200;6.080;2022-12-07T05:17:51;0.40;;;0.40;;
76433;SDS011;65265;53.200;6.080;2022-12-07T05:22:43;0.40;;;0.40;;
76433;SDS011;65265;53.200;6.080;2022-12-07T05:27:36;0.47;;;0.47;;
76433;SDS011;65265;53.200;6.080;2022-12-07T05:32:28;0.38;;;0.38;;
76433;SDS011;65265;53.200;6.080;2022-12-07T05:37:20;0.30;;;0.30;;
76433;SDS011;65265;53.200;6.080;2022-12-07T05:42:11;0.47;;;0.47;;
76433;SDS011;65265;53.200;6.080;2022-12-07T05:47:04;0.40;;;0.40;;
76433;SDS011;65265;53.200;6.080;2022-12-07T05:51:57;0.40;;;0.40;;
76433;SDS011;65265;53.200;6.080;2022-12-07T05:56:49;0.30;;;0.30;;
76433;SDS011;65265;53.200;6.080;2022-12-07T06:01:41;0.30;;;0.30;;
76433;SDS011;65265;53.200;6.080;2022-12-07T06:06:34;0.55;;;0.45;;
76433;SDS011;65265;53.200;6.080;2022-12-07T06:11:26;0.25;;;0.25;;
76433;SDS011;65265;53.200;6.080;2022-12-07T06:16:35;0.30;;;0.30;;
76433;SDS011;65265;53.200;6.080;2022-12-07T06:21:27;0.35;;;0.35;;
76433;SDS011;65265;53.200;6.080;2022-12-07T06:26:20;0.30;;;0.30;;
76433;SDS011;65265;53.200;6.080;2022-12-07T06:31:12;0.35;;;0.35;;
76433;SDS011;65265;53.200;6.080;2022-12-07T06:36:04;0.30;;;0.30;;
76433;SDS011;65265;53.200;6.080;2022-12-07T06:40:56;0.40;;;0.40;;
76433;SDS011;65265;53.200;6.080;2022-12-07T06:45:49;0.30;;;0.30;;
76433;SDS011;65265;53.200;6.080;2022-12-07T06:50:40;0.40;;;0.40;;
76433;SDS011;65265;53.200;6.080;2022-12-07T06:55:32;0.45;;;0.45;;
76433;SDS011;65265;53.200;6.080;2022-12-07T07:00:24;0.40;;;0.40;;
76433;SDS011;65265;53.200;6.080;2022-12-07T07:05:18;0.32;;;0.32;;
76433;SDS011;65265;53.200;6.080;2022-12-07T07:10:11;0.38;;;0.38;;
76433;SDS011;65265;53.200;6.080;2022-12-07T07:15:03;0.45;;;0.45;;
76433;SDS011;65265;53.200;6.080;2022-12-07T07:19:55;0.45;;;0.45;;
76433;SDS011;65265;53.200;6.080;2022-12-07T07:24:48;0.30;;;0.30;;
76433;SDS011;65265;53.200;6.080;2022-12-07T07:29:40;0.47;;;0.43;;
76433;SDS011;65265;53.200;6.080;2022-12-07T07:34:31;0.45;;;0.43;;
76433;SDS011;65265;53.200;6.080;2022-12-07T07:39:23;0.47;;;0.47;;
76433;SDS011;65265;53.200;6.080;2022-12-07T07:44:16;0.38;;;0.38;;
76433;SDS011;65265;53.200;6.080;2022-12-07T07:49:08;0.40;;;0.40;;
76433;SDS011;65265;53.200;6.080;2022-12-07T07:54:00;0.20;;;0.20;;
76433;SDS011;65265;53.200;6.080;2022-12-07T07:58:51;0.50;;;0.50;;
76433;SDS011;65265;53.200;6.080;2022-12-07T08:03:45;0.30;;;0.30;;
76433;SDS011;65265;53.200;6.080;2022-12-07T08:08:37;0.40;;;0.40;;
76433;SDS011;65265;53.200;6.080;2022-12-07T08:13:29;0.30;;;0.30;;
76433;SDS011;65265;53.200;6.080;2022-12-07T08:18:20;0.32;;;0.32;;
76433;SDS011;65265;53.200;6.080;2022-12-07T08:23:13;0.28;;;0.28;;
76433;SDS011;65265;53.200;6.080;2022-12-07T08:28:05;0.30;;;0.30;;
76433;SDS011;65265;53.200;6.080;2022-12-07T08:32:56;0.35;;;0.35;;
76433;SDS011;65265;53.200;6.080;2022-12-07T08:37:48;0.30;;;0.30;;
76433;SDS011;65265;53.200;6.080;2022-12-07T08:42:41;0.25;;;0.25;;
76433;SDS011;65265;53.200;6.080;2022-12-07T08:47:34;0.30;;;0.30;;
76433;SDS011;65265;53.200;6.080;2022-12-07T08:52:27;0.60;;;0.40;;
76433;SDS011;65265;53.200;6.080;2022-12-07T08:57:19;0.50;;;0.50;;
76433;SDS011;65265;53.200;6.080;2022-12-07T09:02:14;0.43;;;0.43;;
76433;SDS011;65265;53.200;6.080;2022-12-07T09:07:05;0.40;;;0.40;;
76433;SDS011;65265;53.200;6.080;2022-12-07T09:11:57;0.45;;;0.45;;
76433;SDS011;65265;53.200;6.080;2022-12-07T09:16:49;0.50;;;0.50;;
76433;SDS011;65265;53.200;6.080;2022-12-07T09:21:42;0.20;;;0.20;;
76433;SDS011;65265;53.200;6.080;2022-12-07T09:26:34;0.32;;;0.32;;
76433;SDS011;65265;53.200;6.080;2022-12-07T09:31:25;0.45;;;0.45;;
76433;SDS011;65265;53.200;6.080;2022-12-07T09:36:17;0.32;;;0.32;;
76433;SDS011;65265;53.200;6.080;2022-12-07T09:41:10;0.50;;;0.50;;
76433;SDS011;65265;53.200;6.080;2022-12-07T09:46:02;0.30;;;0.30;;
76433;SDS011;65265;53.200;6.080;2022-12-07T09:50:54;0.32;;;0.30;;
76433;SDS011;65265;53.200;6.080;2022-12-07T09:55:48;0.30;;;0.30;;
76433;SDS011;65265;53.200;6.080;2022-12-07T10:00:41;0.40;;;0.40;;
76433;SDS011;65265;53.200;6.080;2022-12-07T10:05:34;0.35;;;0.35;;
76433;SDS011;65265;53.200;6.080;2022-12-07T10:10:29;0.28;;;0.28;;
76433;SDS011;65265;53.200;6.080;2022-12-07T10:15:22;0.55;;;0.55;;
76433;SDS011;65265;53.200;6.080;2022-12-07T10:20:18;0.30;;;0.30;;
76433;SDS011;65265;53.200;6.080;2022-12-07T10:25:16;0.47;;;0.45;;
76433;SDS011;65265;53.200;6.080;2022-12-07T10:30:12;0.40;;;0.40;;
76433;SDS011;65265;53.200;6.080;2022-12-07T10:40:29;0.50;;;0.50;;
76433;SDS011;65265;53.200;6.080;2022-12-07T10:45:23;0.30;;;0.30;;
76433;SDS011;65265;53.200;6.080;2022-12-07T10:50:17;0.30;;;0.30;;
76433;SDS011;65265;53.200;6.080;2022-12-07T10:55:23;0.40;;;0.40;;
76433;SDS011;65265;53.200;6.080;2022-12-07T11:05:16;0.60;;;0.60;;
76433;SDS011;65265;53.200;6.080;2022-12-07T11:43:01;1.52;;;0.32;;
76433;SDS011;65265;53.200;6.080;2022-12-07T13:02:49;0.10;;;0.03;;
76433;SDS011;65265;53.200;6.080;2022-12-07T13:07:51;0.30;;;0.10;;
76433;SDS011;65265;53.200;6.080;2022-12-07T13:12:54;0.05;;;0.05;;
76433;SDS011;65265;53.200;6.080;2022-12-07T13:18:01;0.22;;;0.22;;
76433;SDS011;65265;53.200;6.080;2022-12-07T13:22:55;0.10;;;0.08;;
76433;SDS011;65265;53.200;6.080;2022-12-07T13:27:51;0.15;;;0.10;;
76433;SDS011;65265;53.200;6.080;2022-12-07T13:37:44;0.08;;;0.00;;
76433;SDS011;65265;53.200;6.080;2022-12-07T13:42:35;0.03;;;0.03;;
76433;SDS011;65265;53.200;6.080;2022-12-07T13:47:30;0.13;;;0.05;;
76433;SDS011;65265;53.200;6.080;2022-12-07T13:52:27;0.00;;;0.00;;
76433;SDS011;65265;53.200;6.080;2022-12-07T13:57:21;0.77;;;0.22;;
76433;SDS011;65265;53.200;6.080;2022-12-07T14:02:20;0.00;;;0.00;;
76433;SDS011;65265;53.200;6.080;2022-12-07T14:07:21;0.00;;;0.00;;
76433;SDS011;65265;53.200;6.080;2022-12-07T14:12:14;0.00;;;0.00;;
76433;SDS011;65265;53.200;6.080;2022-12-07T14:17:12;0.85;;;0.40;;
76433;SDS011;65265;53.200;6.080;2022-12-07T14:28:52;0.70;;;0.13;;
76433;SDS011;65265;53.200;6.080;2022-12-07T14:33:44;0.20;;;0.15;;
76433;SDS011;65265;53.200;6.080;2022-12-07T14:38:35;0.35;;;0.00;;
76433;SDS011;65265;53.200;6.080;2022-12-07T14:43:26;0.93;;;0.00;;
76433;SDS011;65265;53.200;6.080;2022-12-07T14:54:46;0.95;;;0.60;;
76433;SDS011;65265;53.200;6.080;2022-12-07T14:59:38;1.13;;;0.40;;
76433;SDS011;65265;53.200;6.080;2022-12-07T15:04:30;2.03;;;0.95;;
76433;SDS011;65265;53.200;6.080;2022-12-07T15:09:21;1.45;;;0.85;;
76433;SDS011;65265;53.200;6.080;2022-12-07T15:14:15;2.03;;;1.25;;
76433;SDS011;65265;53.200;6.080;2022-12-07T15:19:09;1.95;;;1.23;;
76433;SDS011;65265;53.200;6.080;2022-12-07T15:24:03;1.92;;;1.83;;
76433;SDS011;65265;53.200;6.080;2022-12-07T15:28:55;3.83;;;1.58;;
76433;SDS011;65265;53.200;6.080;2022-12-07T15:33:48;2.45;;;1.42;;
76433;SDS011;65265;53.200;6.080;2022-12-07T15:38:39;1.63;;;1.52;;
76433;SDS011;65265;53.200;6.080;2022-12-07T15:43:31;3.10;;;3.00;;
76433;SDS011;65265;53.200;6.080;2022-12-07T15:48:42;1.90;;;1.73;;
76433;SDS011;65265;53.200;6.080;2022-12-07T15:53:38;4.45;;;2.35;;
76433;SDS011;65265;53.200;6.080;2022-12-07T15:58:30;3.10;;;2.55;;
76433;SDS011;65265;53.200;6.080;2022-12-07T16:03:22;2.08;;;1.98;;
76433;SDS011;65265;53.200;6.080;2022-12-07T16:08:14;2.53;;;2.35;;
76433;SDS011;65265;53.200;6.080;2022-12-07T16:13:07;1.42;;;1.10;;
76433;SDS011;65265;53.200;6.080;2022-12-07T16:17:58;1.42;;;1.33;;
76433;SDS011;65265;53.200;6.080;2022-12-07T16:22:50;2.00;;;1.88;;
76433;SDS011;65265;53.200;6.080;2022-12-07T16:27:43;2.15;;;2.05;;
76433;SDS011;65265;53.200;6.080;2022-12-07T16:32:36;2.10;;;2.00;;
76433;SDS011;65265;53.200;6.080;2022-12-07T16:37:27;1.92;;;1.83;;
76433;SDS011;65265;53.200;6.080;2022-12-07T16:42:19;3.15;;;1.58;;
76433;SDS011;65265;53.200;6.080;2022-12-07T16:47:10;0.25;;;0.25;;
76433;SDS011;65265;53.200;6.080;2022-12-07T16:52:04;2.67;;;1.38;;
76433;SDS011;65265;53.200;6.080;2022-12-07T16:56:55;2.13;;;1.65;;
76433;SDS011;65265;53.200;6.080;2022-12-07T17:01:47;4.30;;;1.58;;
76433;SDS011;65265;53.200;6.080;2022-12-07T17:06:39;1.77;;;1.67;;
76433;SDS011;65265;53.200;6.080;2022-12-07T17:11:31;2.25;;;2.08;;
76433;SDS011;65265;53.200;6.080;2022-12-07T17:16:23;1.67;;;1.58;;
76433;SDS011;65265;53.200;6.080;2022-12-07T17:21:14;2.00;;;1.67;;
76433;SDS011;65265;53.200;6.080;2022-12-07T17:26:06;2.65;;;2.45;;
76433;SDS011;65265;53.200;6.080;2022-12-07T17:31:00;2.03;;;1.85;;
76433;SDS011;65265;53.200;6.080;2022-12-07T17:35:52;2.72;;;0.40;;
76433;SDS011;65265;53.200;6.080;2022-12-07T17:40:44;1.85;;;1.17;;
76433;SDS011;65265;53.200;6.080;2022-12-07T17:45:35;1.73;;;0.10;;
76433;SDS011;65265;53.200;6.080;2022-12-07T17:50:29;1.67;;;1.63;;
76433;SDS011;65265;53.200;6.080;2022-12-07T17:55:37;1.70;;;1.63;;
76433;SDS011;65265;53.200;6.080;2022-12-07T18:00:29;1.70;;;1.70;;
76433;SDS011;65265;53.200;6.080;2022-12-07T18:05:28;2.10;;;1.95;;
76433;SDS011;65265;53.200;6.080;2022-12-07T18:10:20;1.88;;;1.75;;
76433;SDS011;65265;53.200;6.080;2022-12-07T18:15:11;3.90;;;3.20;;
76433;SDS011;65265;53.200;6.080;2022-12-07T18:20:04;17.90;;;10.88;;
76433;SDS011;65265;53.200;6.080;2022-12-07T18:24:59;5.18;;;3.38;;
76433;SDS011;65265;53.200;6.080;2022-12-07T18:34:43;5.22;;;3.03;;
76433;SDS011;65265;53.200;6.080;2022-12-07T18:39:34;3.55;;;2.72;;
76433;SDS011;65265;53.200;6.080;2022-12-07T18:44:27;1.88;;;1.25;;
76433;SDS011;65265;53.200;6.080;2022-12-07T18:49:19;3.35;;;2.72;;
76433;SDS011;65265;53.200;6.080;2022-12-07T18:54:10;1.95;;;1.83;;
76433;SDS011;65265;53.200;6.080;2022-12-07T18:59:03;2.70;;;2.50;;
76433;SDS011;65265;53.200;6.080;2022-12-07T19:04:14;2.75;;;2.65;;
76433;SDS011;65265;53.200;6.080;2022-12-07T19:09:06;2.03;;;1.42;;
76433;SDS011;65265;53.200;6.080;2022-12-07T19:13:57;2.00;;;1.90;;
76433;SDS011;65265;53.200;6.080;2022-12-07T19:18:50;2.40;;;2.22;;
76433;SDS011;65265;53.200;6.080;2022-12-07T19:23:43;2.83;;;1.85;;
76433;SDS011;65265;53.200;6.080;2022-12-07T19:28:35;2.28;;;2.00;;
76433;SDS011;65265;53.200;6.080;2022-12-07T19:33:27;2.13;;;1.50;;
76433;SDS011;65265;53.200;6.080;2022-12-07T19:38:19;2.85;;;2.65;;
76433;SDS011;65265;53.200;6.080;2022-12-07T19:43:12;4.82;;;2.60;;
76433;SDS011;65265;53.200;6.080;2022-12-07T19:48:03;5.20;;;2.88;;
76433;SDS011;65265;53.200;6.080;2022-12-07T19:52:55;4.07;;;2.75;;
76433;SDS011;65265;53.200;6.080;2022-12-07T19:57:46;4.43;;;2.67;;
76433;SDS011;65265;53.200;6.080;2022-12-07T20:02:39;3.85;;;3.65;;
76433;SDS011;65265;53.200;6.080;2022-12-07T20:07:31;3.35;;;2.92;;
76433;SDS011;65265;53.200;6.080;2022-12-07T20:12:27;5.03;;;3.20;;
76433;SDS011;65265;53.200;6.080;2022-12-07T20:17:37;4.05;;;3.67;;
76433;SDS011;65265;53.200;6.080;2022-12-07T20:22:29;5.57;;;3.72;;
76433;SDS011;65265;53.200;6.080;2022-12-07T20:27:21;1.98;;;1.70;;
76433;SDS011;65265;53.200;6.080;2022-12-07T20:32:12;4.75;;;3.20;;
76433;SDS011;65265;53.200;6.080;2022-12-07T20:37:04;3.67;;;3.28;;
76433;SDS011;65265;53.200;6.080;2022-12-07T20:41:57;4.78;;;2.88;;
76433;SDS011;65265;53.200;6.080;2022-12-07T20:47:06;4.72;;;2.70;;
76433;SDS011;65265;53.200;6.080;2022-12-07T20:51:57;2.58;;;1.92;;
76433;SDS011;65265;53.200;6.080;2022-12-07T20:56:49;2.25;;;1.90;;
76433;SDS011;65265;53.200;6.080;2022-12-07T21:01:42;2.67;;;2.17;;
76433;SDS011;65265;53.200;6.080;2022-12-07T21:11:26;2.47;;;2.13;;
76433;SDS011;65265;53.200;6.080;2022-12-07T21:16:20;3.88;;;3.55;;
76433;SDS011;65265;53.200;6.080;2022-12-07T21:21:14;4.82;;;2.33;;
76433;SDS011;65265;53.200;6.080;2022-12-07T21:26:08;1.52;;;0.50;;
76433;SDS011;65265;53.200;6.080;2022-12-07T21:31:00;3.20;;;2.45;;
76433;SDS011;65265;53.200;6.080;2022-12-07T21:35:52;4.53;;;1.60;;
76433;SDS011;65265;53.200;6.080;2022-12-07T21:40:45;2.00;;;0.40;;
76433;SDS011;65265;53.200;6.080;2022-12-07T21:45:37;5.28;;;1.95;;
76433;SDS011;65265;53.200;6.080;2022-12-07T21:50:28;2.78;;;1.98;;
76433;SDS011;65265;53.200;6.080;2022-12-07T21:55:20;3.58;;;2.40;;
76433;SDS011;65265;53.200;6.080;2022-12-07T22:00:13;2.72;;;1.35;;
76433;SDS011;65265;53.200;6.080;2022-12-07T22:05:06;4.15;;;1.52;;
76433;SDS011;65265;53.200;6.080;2022-12-07T22:09:58;2.88;;;1.67;;
76433;SDS011;65265;53.200;6.080;2022-12-07T22:14:49;2.45;;;2.15;;
76433;SDS011;65265;53.200;6.080;2022-12-07T22:20:00;4.95;;;2.40;;
76433;SDS011;65265;53.200;6.080;2022-12-07T22:24:52;6.25;;;2.17;;
76433;SDS011;65265;53.200;6.080;2022-12-07T22:29:44;9.57;;;4.50;;
76433;SDS011;65265;53.200;6.080;2022-12-07T22:34:35;2.53;;;2.10;;
76433;SDS011;65265;53.200;6.080;2022-12-07T22:39:28;21.48;;;7.35;;
76433;SDS011;65265;53.200;6.080;2022-12-07T22:44:20;21.13;;;6.88;;
76433;SDS011;65265;53.200;6.080;2022-12-07T22:49:12;20.52;;;5.68;;
76433;SDS011;65265;53.200;6.080;2022-12-07T22:54:04;17.92;;;5.32;;
76433;SDS011;65265;53.200;6.080;2022-12-07T23:03:50;4.72;;;2.15;;
76433;SDS011;65265;53.200;6.080;2022-12-07T23:08:42;3.15;;;1.92;;
76433;SDS011;65265;53.200;6.080;2022-12-07T23:13:34;2.95;;;2.10;;
76433;SDS011;65265;53.200;6.080;2022-12-07T23:18:28;5.30;;;2.50;;
76433;SDS011;65265;53.200;6.080;2022-12-07T23:23:20;2.97;;;2.78;;
76433;SDS011;65265;53.200;6.080;2022-12-07T23:28:11;1.75;;;1.65;;
76433;SDS011;65265;53.200;6.080;2022-12-07T23:33:02;10.52;;;3.33;;
76433;SDS011;65265;53.200;6.080;2022-12-07T23:37:56;3.47;;;1.92;;
76433;SDS011;65265;53.200;6.080;2022-12-07T23:42:47;1.30;;;1.20;;
76433;SDS011;65265;53.200;6.080;2022-12-07T23:47:39;1.83;;;0.85;;
76433;SDS011;65265;53.200;6.080;2022-12-07T23:52:30;2.20;;;1.25;;
76433;SDS011;65265;53.200;6.080;2022-12-07T23:57:23;2.15;;;2.00;;
